createdAt,value
2018-12-05T00:00:47.447Z,61.36
2018-12-05T00:03:21.660Z,62.04
2018-12-05T00:05:55.671Z,61.80
2018-12-05T00:08:39.135Z,62.07
2018-12-05T00:11:33.294Z,61.76
2018-12-05T00:14:13.985Z,62.55
2018-12-05T00:16:57.594Z,62.43
2018-12-05T00:19:31.508Z,62.21
2018-12-05T00:22:05.503Z,62.30
2018-12-05T00:24:39.572Z,61.97
2018-12-05T00:27:13.828Z,61.81
2018-12-05T00:38:38.680Z,62.50
2018-12-05T00:41:12.496Z,62.16
2018-12-05T00:43:53.597Z,62.53
2018-12-05T00:46:34.998Z,62.94
2018-12-05T00:49:14.693Z,62.39
2018-12-05T00:51:51.342Z,62.81
2018-12-05T00:54:29.137Z,63.38
2018-12-05T00:57:06.676Z,63.10
2018-12-05T00:59:45.057Z,62.60
2018-12-05T01:02:22.254Z,61.92
2018-12-05T01:04:58.202Z,61.82
2018-12-05T01:07:35.214Z,62.03
2018-12-05T01:10:09.291Z,61.83
2018-12-05T01:12:43.405Z,62.09
2018-12-05T01:15:17.394Z,61.60
2018-12-05T01:17:52.983Z,62.14
2018-12-05T01:20:26.969Z,61.96
2018-12-05T01:23:02.531Z,61.78
2018-12-05T01:25:36.982Z,61.92
2018-12-05T01:28:11.045Z,62.16
2018-12-05T01:30:44.952Z,62.57
2018-12-05T01:33:18.859Z,62.25
2018-12-05T01:35:52.821Z,62.02
2018-12-05T01:38:26.838Z,62.46
2018-12-05T01:41:00.889Z,62.46
2018-12-05T01:43:40.428Z,62.39
2018-12-05T01:46:14.310Z,62.73
2018-12-05T01:48:48.550Z,62.73
2018-12-05T01:51:22.559Z,63.19
2018-12-05T01:53:56.467Z,62.92
2018-12-05T01:56:30.169Z,62.66
2018-12-05T01:59:04.399Z,62.52
2018-12-05T02:01:38.985Z,62.80
2018-12-05T02:04:13.022Z,62.92
2018-12-05T02:06:47.114Z,62.42
2018-12-05T02:09:21.131Z,62.36
2018-12-05T02:11:55.222Z,62.71
2018-12-05T02:14:29.366Z,63.19
2018-12-05T02:17:03.191Z,63.55
2018-12-05T02:19:37.143Z,63.67
2018-12-05T02:22:11.261Z,63.47
2018-12-05T02:24:45.402Z,63.17
2018-12-05T02:27:19.367Z,63.25
2018-12-05T02:29:58.439Z,62.54
2018-12-05T02:32:32.858Z,62.68
2018-12-05T02:35:06.765Z,62.07
2018-12-05T02:37:40.877Z,62.19
2018-12-05T02:40:14.594Z,62.34
2018-12-05T02:42:48.794Z,62.81
2018-12-05T02:45:22.600Z,62.47
2018-12-05T02:47:56.723Z,62.62
2018-12-05T02:50:30.528Z,62.85
2018-12-05T02:53:04.477Z,62.68
2018-12-05T02:55:38.594Z,62.52
2018-12-05T02:58:12.646Z,62.87
2018-12-05T03:00:46.554Z,62.56
2018-12-05T03:03:20.462Z,62.88
2018-12-05T03:05:54.357Z,62.80
2018-12-05T03:08:28.378Z,62.44
2018-12-05T03:11:02.196Z,62.22
2018-12-05T03:13:36.192Z,62.55
2018-12-05T03:16:09.997Z,62.47
2018-12-05T03:18:43.803Z,62.05
2018-12-05T03:21:17.677Z,62.10
2018-12-05T03:23:51.692Z,62.31
2018-12-05T03:26:25.783Z,62.14
2018-12-05T03:28:59.799Z,62.02
2018-12-05T03:31:33.945Z,62.41
2018-12-05T03:34:07.963Z,62.12
2018-12-05T03:36:41.869Z,62.35
2018-12-05T03:39:15.776Z,62.68
2018-12-05T03:41:49.581Z,62.62
2018-12-05T03:44:23.605Z,62.93
2018-12-05T03:46:57.764Z,64.36
2018-12-05T03:49:31.867Z,63.87
2018-12-05T03:52:06.030Z,64.34
2018-12-05T03:54:40.142Z,63.95
2018-12-05T03:57:14.458Z,64.47
2018-12-05T03:59:48.366Z,64.91
2018-12-05T04:02:22.194Z,64.67
2018-12-05T04:04:56.282Z,64.08
2018-12-05T04:07:30.158Z,64.31
2018-12-05T04:10:04.912Z,64.56
2018-12-05T04:12:40.827Z,64.24
2018-12-05T04:15:15.087Z,64.43
2018-12-05T04:17:49.049Z,64.56
2018-12-05T04:20:23.103Z,64.36
2018-12-05T04:22:57.009Z,64.15
2018-12-05T04:25:30.819Z,64.44
2018-12-05T04:28:04.619Z,64.15
2018-12-05T04:30:38.405Z,64.05
2018-12-05T04:33:12.637Z,64.58
2018-12-05T04:35:46.512Z,65.57
2018-12-05T04:38:20.554Z,66.26
2018-12-05T04:40:54.443Z,65.89
2018-12-05T04:43:28.573Z,65.67
2018-12-05T04:46:02.424Z,65.57
2018-12-05T04:48:36.362Z,65.42
2018-12-05T04:51:10.656Z,64.97
2018-12-05T04:53:44.613Z,64.86
2018-12-05T04:56:18.628Z,64.72
2018-12-05T04:58:52.734Z,65.22
2018-12-05T05:01:26.947Z,64.75
2018-12-05T05:04:00.958Z,65.01
2018-12-05T05:06:41.442Z,64.61
2018-12-05T05:09:11.128Z,64.09
2018-12-05T05:11:44.938Z,65.09
2018-12-05T05:14:19.044Z,64.91
2018-12-05T05:16:52.951Z,64.34
2018-12-05T05:19:26.907Z,64.59
2018-12-05T05:22:01.049Z,64.44
2018-12-05T05:24:35.084Z,64.39
2018-12-05T05:27:08.989Z,64.01
2018-12-05T05:29:42.897Z,63.93
2018-12-05T05:32:16.804Z,64.36
2018-12-05T05:34:50.609Z,64.40
2018-12-05T05:37:24.721Z,64.66
2018-12-05T05:39:58.833Z,65.00
2018-12-05T05:42:32.745Z,65.18
2018-12-05T05:45:06.649Z,65.89
2018-12-05T05:47:40.759Z,66.19
2018-12-05T05:50:14.666Z,65.89
2018-12-05T05:52:48.677Z,65.97
2018-12-05T05:55:22.584Z,66.59
2018-12-05T05:57:56.491Z,66.37
2018-12-05T06:00:30.302Z,66.59
2018-12-05T06:03:04.354Z,67.33
2018-12-05T06:05:38.317Z,66.80
2018-12-05T06:08:12.409Z,66.99
2018-12-05T06:10:46.437Z,67.32
2018-12-05T06:13:20.345Z,66.95
2018-12-05T06:15:54.252Z,66.86
2018-12-05T06:18:28.167Z,66.70
2018-12-05T06:21:02.065Z,66.88
2018-12-05T06:23:35.871Z,67.22
2018-12-05T06:26:09.574Z,66.82
2018-12-05T06:28:43.583Z,66.61
2018-12-05T06:31:17.390Z,66.42
2018-12-05T06:33:51.397Z,66.22
2018-12-05T06:36:25.569Z,66.39
2018-12-05T06:38:59.622Z,65.94
2018-12-05T06:41:33.426Z,65.90
2018-12-05T06:44:07.332Z,66.10
2018-12-05T06:46:41.137Z,65.95
2018-12-05T06:49:14.991Z,65.95
2018-12-05T06:51:49.054Z,65.71
2018-12-05T06:54:23.064Z,66.45
2018-12-05T06:56:57.837Z,67.11
2018-12-05T06:59:31.918Z,67.05
2018-12-05T07:02:06.014Z,66.79
2018-12-05T07:04:39.921Z,66.70
2018-12-05T07:07:13.725Z,66.80
2018-12-05T07:09:47.791Z,66.78
2018-12-05T07:12:21.953Z,66.43
2018-12-05T07:14:55.755Z,66.17
2018-12-05T07:17:29.867Z,66.01
2018-12-05T07:20:05.256Z,65.44
2018-12-05T07:22:39.012Z,64.69
2018-12-05T07:25:12.819Z,64.54
2018-12-05T07:27:46.623Z,64.54
2018-12-05T07:30:20.529Z,64.62
2018-12-05T07:32:54.334Z,64.33
2018-12-05T07:35:28.299Z,64.25
2018-12-05T07:38:02.250Z,64.81
2018-12-05T07:40:36.055Z,64.59
2018-12-05T07:43:09.860Z,64.64
2018-12-05T07:45:43.674Z,64.19
2018-12-05T07:48:17.708Z,64.14
2018-12-05T07:50:51.786Z,64.25
2018-12-05T07:53:25.694Z,64.70
2018-12-05T07:55:59.604Z,64.85
2018-12-05T07:58:33.508Z,64.58
2018-12-05T08:01:07.416Z,64.97
2018-12-05T08:03:41.327Z,65.07
2018-12-05T08:06:15.229Z,65.34
2018-12-05T08:08:48.932Z,65.14
2018-12-05T08:11:22.841Z,65.52
2018-12-05T08:13:57.213Z,65.29
2018-12-05T08:16:31.268Z,65.27
2018-12-05T08:19:05.246Z,65.32
2018-12-05T08:21:39.393Z,65.03
2018-12-05T08:24:13.501Z,65.44
2018-12-05T08:26:47.408Z,65.45
2018-12-05T08:29:21.417Z,65.39
2018-12-05T08:31:55.222Z,65.37
2018-12-05T08:34:29.190Z,65.10
2018-12-05T08:37:03.155Z,64.98
2018-12-05T08:39:37.202Z,65.85
2018-12-05T08:42:11.159Z,66.11
2018-12-05T08:44:45.786Z,65.76
2018-12-05T08:47:19.791Z,66.01
2018-12-05T08:49:53.700Z,65.40
2018-12-05T08:52:27.709Z,65.59
2018-12-05T08:55:01.923Z,65.20
2018-12-05T08:57:35.830Z,65.65
2018-12-05T09:00:09.843Z,65.30
2018-12-05T09:02:43.648Z,65.50
2018-12-05T09:05:17.661Z,65.45
2018-12-05T09:07:51.766Z,65.07
2018-12-05T09:10:25.673Z,64.80
2018-12-05T09:12:59.583Z,64.42
2018-12-05T09:15:33.489Z,64.60
2018-12-05T09:18:07.461Z,64.55
2018-12-05T09:20:41.507Z,64.52
2018-12-05T09:23:15.209Z,64.24
2018-12-05T09:25:49.186Z,63.87
2018-12-05T09:28:23.331Z,64.23
2018-12-05T09:30:57.340Z,65.60
2018-12-05T09:33:38.327Z,65.03
2018-12-05T09:36:12.733Z,65.85
2018-12-05T09:38:46.537Z,65.28
2018-12-05T09:41:20.445Z,64.96
2018-12-05T09:43:54.454Z,64.35
2018-12-05T09:46:28.361Z,64.30
2018-12-05T09:49:02.166Z,64.97
2018-12-05T09:51:36.073Z,64.45
2018-12-05T09:54:10.083Z,64.60
2018-12-05T09:56:44.093Z,64.64
2018-12-05T09:59:17.794Z,64.46
2018-12-05T10:01:51.861Z,63.82
2018-12-05T10:04:25.919Z,63.65
2018-12-05T10:06:59.724Z,63.50
2018-12-05T10:09:33.730Z,64.42
2018-12-05T10:12:07.740Z,64.10
2018-12-05T10:14:41.543Z,64.02
2018-12-05T10:17:15.656Z,63.45
2018-12-05T10:19:49.563Z,63.11
2018-12-05T10:22:23.471Z,62.45
2018-12-05T10:24:57.378Z,62.10
2018-12-05T10:27:32.394Z,61.88
2018-12-05T10:30:07.964Z,61.67
2018-12-05T10:32:41.967Z,61.51
2018-12-05T10:35:15.774Z,61.76
2018-12-05T10:37:49.866Z,61.53
2018-12-05T10:40:23.792Z,61.32
2018-12-05T10:42:57.766Z,61.46
2018-12-05T10:45:31.912Z,61.31
2018-12-05T10:48:05.923Z,61.17
2018-12-05T10:50:40.037Z,61.28
2018-12-05T10:53:13.940Z,61.29
2018-12-05T10:55:47.748Z,61.46
2018-12-05T10:58:21.838Z,60.90
2018-12-05T11:01:01.499Z,60.80
2018-12-05T11:03:35.570Z,60.79
2018-12-05T11:06:17.761Z,61.00
2018-12-05T11:08:57.297Z,60.93
2018-12-05T11:11:37.118Z,60.89
2018-12-05T11:14:16.839Z,60.73
2018-12-05T11:16:55.150Z,60.36
2018-12-05T11:19:34.795Z,60.82
2018-12-05T11:22:10.707Z,60.86
2018-12-05T11:24:44.653Z,60.84
2018-12-05T11:27:18.592Z,60.80
2018-12-05T11:29:52.674Z,60.52
2018-12-05T11:32:26.579Z,60.31
2018-12-05T11:35:00.692Z,60.42
2018-12-05T11:37:34.804Z,60.43
2018-12-05T11:40:08.711Z,60.12
2018-12-05T11:42:42.631Z,60.31
2018-12-05T11:45:16.731Z,60.33
2018-12-05T11:47:50.768Z,60.10
2018-12-05T11:50:24.854Z,60.15
2018-12-05T11:52:58.759Z,60.30
2018-12-05T11:55:32.871Z,60.53
2018-12-05T11:58:06.836Z,60.44
2018-12-05T12:00:40.980Z,60.38
2018-12-05T12:03:15.108Z,60.40
2018-12-05T12:05:49.313Z,60.45
2018-12-05T12:08:23.333Z,60.50
2018-12-05T12:10:57.547Z,60.42
2018-12-05T12:13:31.656Z,60.34
2018-12-05T12:16:05.873Z,60.40
2018-12-05T12:18:39.882Z,60.50
2018-12-05T12:21:13.788Z,60.65
2018-12-05T12:23:48.006Z,60.84
2018-12-05T12:26:21.908Z,60.71
2018-12-05T12:28:55.722Z,60.78
2018-12-05T12:31:29.722Z,60.74
2018-12-05T12:34:03.816Z,60.71
2018-12-05T12:36:37.845Z,61.01
2018-12-05T12:39:11.598Z,61.12
2018-12-05T12:41:45.761Z,61.28
2018-12-05T12:44:19.876Z,61.35
2018-12-05T12:46:53.679Z,61.20
2018-12-05T12:49:27.893Z,61.22
2018-12-05T12:52:01.779Z,61.45
2018-12-05T12:54:35.809Z,61.67
2018-12-05T12:57:09.590Z,61.90
2018-12-05T12:59:43.623Z,61.95
2018-12-05T13:02:17.530Z,61.92
2018-12-05T13:04:51.439Z,61.90
2018-12-05T13:07:25.244Z,61.70
2018-12-05T13:09:59.051Z,61.56
2018-12-05T13:12:35.110Z,61.35
2018-12-05T13:15:09.217Z,61.26
2018-12-05T13:17:43.139Z,61.31
2018-12-05T13:20:17.135Z,61.64
2018-12-05T13:22:50.940Z,61.14
2018-12-05T13:37:22.568Z,61.62
2018-12-05T13:39:56.376Z,61.76
2018-12-05T13:42:30.335Z,61.45
2018-12-05T13:45:04.917Z,61.50
2018-12-05T13:47:38.914Z,61.30
2018-12-05T13:50:12.926Z,61.30
2018-12-05T13:52:47.244Z,61.52
2018-12-05T13:55:21.251Z,61.59
2018-12-05T13:57:54.952Z,61.45
2018-12-05T14:00:28.963Z,61.51
2018-12-05T14:03:03.074Z,61.31
2018-12-05T14:05:37.084Z,61.30
2018-12-05T14:08:10.888Z,61.16
2018-12-05T14:10:44.796Z,61.14
2018-12-05T14:13:18.712Z,61.14
2018-12-05T14:15:52.611Z,61.15
2018-12-05T14:18:26.724Z,61.29
2018-12-05T14:21:00.518Z,61.28
2018-12-05T14:23:34.645Z,61.01
2018-12-05T14:26:08.413Z,61.03
2018-12-05T14:28:46.482Z,61.15
2018-12-05T14:31:20.320Z,60.86
2018-12-05T14:33:54.365Z,60.99
2018-12-05T14:36:28.374Z,61.05
2018-12-05T14:39:17.675Z,61.62
2018-12-05T14:41:51.650Z,61.44
2018-12-05T14:44:25.575Z,61.72
2018-12-05T14:46:59.772Z,61.37
2018-12-05T14:49:33.781Z,61.34
2018-12-05T14:52:07.692Z,61.19
2018-12-05T14:54:41.699Z,61.13
2018-12-05T14:57:15.708Z,60.96
2018-12-05T14:59:49.598Z,61.08
2018-12-05T15:02:23.625Z,60.98
2018-12-05T15:04:57.635Z,61.08
2018-12-05T15:07:31.646Z,60.97
2018-12-05T15:10:06.371Z,60.90
2018-12-05T15:12:40.278Z,61.01
2018-12-05T15:15:14.185Z,60.70
2018-12-05T15:17:48.116Z,61.31
2018-12-05T15:20:22.307Z,61.37
2018-12-05T15:22:56.324Z,60.94
2018-12-05T15:25:30.226Z,60.87
2018-12-05T15:28:04.234Z,61.05
2018-12-05T15:30:38.247Z,61.05
2018-12-05T15:33:12.253Z,61.84
2018-12-05T15:35:46.262Z,62.30
2018-12-05T15:38:20.281Z,61.86
2018-12-05T15:40:54.077Z,61.50
2018-12-05T15:43:27.881Z,61.48
2018-12-05T15:46:01.794Z,61.43
2018-12-05T15:48:35.903Z,61.21
2018-12-05T15:51:09.808Z,61.69
2018-12-05T15:53:43.820Z,61.26
2018-12-05T15:56:17.831Z,61.18
2018-12-05T15:58:51.736Z,60.98
2018-12-05T16:01:25.539Z,61.42
2018-12-05T16:03:59.462Z,60.80
2018-12-05T16:06:33.456Z,60.93
2018-12-05T16:09:07.297Z,60.46
2018-12-05T16:11:41.476Z,61.17
2018-12-05T16:14:15.468Z,61.92
2018-12-05T16:16:49.597Z,61.98
2018-12-05T16:19:23.504Z,62.09
2018-12-05T16:21:57.515Z,61.72
2018-12-05T16:24:31.422Z,63.40
2018-12-05T16:27:05.329Z,62.43
2018-12-05T16:29:39.236Z,61.66
2018-12-05T16:32:13.144Z,61.55
2018-12-05T16:34:47.050Z,61.35
2018-12-05T16:37:21.062Z,61.72
2018-12-05T16:39:54.882Z,61.66
2018-12-05T16:42:28.976Z,61.78
2018-12-05T16:45:02.885Z,62.04
2018-12-05T16:47:36.809Z,62.28
2018-12-05T16:50:11.006Z,62.76
2018-12-05T16:52:44.964Z,62.74
2018-12-05T16:55:19.006Z,62.78
2018-12-05T16:57:53.148Z,62.80
2018-12-05T17:00:26.942Z,63.05
2018-12-05T17:03:00.747Z,62.98
2018-12-05T17:05:34.657Z,62.72
2018-12-05T17:08:08.612Z,62.66
2018-12-05T17:10:42.675Z,62.75
2018-12-05T17:13:16.619Z,62.63
2018-12-05T17:15:50.700Z,62.67
2018-12-05T17:18:24.706Z,62.51
2018-12-05T17:20:58.609Z,62.49
2018-12-05T17:23:32.620Z,62.92
2018-12-05T17:26:06.529Z,62.71
2018-12-05T17:28:40.334Z,62.51
2018-12-05T17:31:14.137Z,63.07
2018-12-05T17:33:49.433Z,63.13
2018-12-05T17:36:23.386Z,62.67
2018-12-05T17:38:57.394Z,62.85
2018-12-05T17:41:31.310Z,62.90
2018-12-05T17:44:05.208Z,62.59
2018-12-05T17:46:39.280Z,62.87
2018-12-05T17:49:13.372Z,62.91
2018-12-05T17:51:47.345Z,62.58
2018-12-05T17:54:21.405Z,62.19
2018-12-05T17:56:55.575Z,62.37
2018-12-05T17:59:29.678Z,62.04
2018-12-05T18:02:03.788Z,62.13
2018-12-05T18:04:38.430Z,62.33
2018-12-05T18:07:12.729Z,62.29
2018-12-05T18:09:46.902Z,62.25
2018-12-05T18:12:20.955Z,62.27
2018-12-05T18:14:54.860Z,62.59
2018-12-05T18:17:28.671Z,62.72
2018-12-05T18:20:02.674Z,62.36
2018-12-05T18:22:36.615Z,62.21
2018-12-05T18:25:10.796Z,62.36
2018-12-05T18:27:45.728Z,62.20
2018-12-05T18:30:19.635Z,62.23
2018-12-05T18:32:53.598Z,63.12
2018-12-05T18:35:27.656Z,63.39
2018-12-05T18:38:01.685Z,62.95
2018-12-05T18:40:35.673Z,62.63
2018-12-05T18:43:09.569Z,63.79
2018-12-05T18:45:43.590Z,63.86
2018-12-05T18:48:17.497Z,63.37
2018-12-05T18:50:51.506Z,63.48
2018-12-05T19:09:16.197Z,75.47
2018-12-05T19:11:50.397Z,73.65
2018-12-05T19:14:30.019Z,70.45
2018-12-05T19:17:04.166Z,67.97
2018-12-05T19:19:38.380Z,66.48
2018-12-05T19:22:12.390Z,65.40
2018-12-05T19:24:47.222Z,64.90
2018-12-05T19:27:21.127Z,64.09
2018-12-05T19:29:54.937Z,64.20
2018-12-05T19:32:28.939Z,63.39
2018-12-05T19:35:03.252Z,62.89
2018-12-05T19:37:37.164Z,62.64
2018-12-05T19:40:14.249Z,62.38
2018-12-05T19:42:48.258Z,62.07
2018-12-05T19:45:21.968Z,62.10
2018-12-05T19:47:56.172Z,62.02
2018-12-05T19:50:30.079Z,61.87
2018-12-05T19:53:05.217Z,61.66
2018-12-05T19:55:39.839Z,62.06
2018-12-05T19:58:13.858Z,62.37
2018-12-05T20:00:47.915Z,61.75
2018-12-05T20:03:21.867Z,61.68
2018-12-05T20:05:55.781Z,61.30
2018-12-05T20:08:29.785Z,60.95
2018-12-05T20:11:03.593Z,61.36
2018-12-05T20:13:37.448Z,61.74
2018-12-05T20:16:11.404Z,62.31
2018-12-05T20:18:45.312Z,62.29
2018-12-05T20:21:19.314Z,62.63
2018-12-05T20:23:53.433Z,62.62
2018-12-05T20:26:27.144Z,61.73
2018-12-05T20:29:01.145Z,62.01
2018-12-05T20:31:35.052Z,61.56
2018-12-05T20:34:08.975Z,60.97
2018-12-05T20:36:42.971Z,60.41
2018-12-05T20:39:16.778Z,60.76
2018-12-05T20:45:08.622Z,60.44
2018-12-05T20:47:42.530Z,60.04
2018-12-05T20:50:16.335Z,59.60
2018-12-05T20:52:50.243Z,59.44
2018-12-05T20:55:24.252Z,59.64
2018-12-05T20:57:58.692Z,59.18
2018-12-05T21:00:34.522Z,59.33
2018-12-05T21:03:08.430Z,59.46
2018-12-05T21:05:42.651Z,60.12
2018-12-05T21:08:16.551Z,60.37
2018-12-05T21:10:50.458Z,60.66
2018-12-05T21:13:24.448Z,61.19
2018-12-05T21:15:58.586Z,61.87
2018-12-05T21:18:32.491Z,63.19
2018-12-05T21:21:06.600Z,64.15
2018-12-05T21:23:40.608Z,63.47
2018-12-05T21:26:14.517Z,63.51
2018-12-05T21:28:48.425Z,62.75
2018-12-05T21:31:22.182Z,62.53
2018-12-05T21:33:56.321Z,62.18
2018-12-05T21:36:30.252Z,62.25
2018-12-05T21:39:06.790Z,62.23
2018-12-05T21:41:40.929Z,62.12
2018-12-05T21:44:15.144Z,62.64
2018-12-05T21:46:48.950Z,64.15
2018-12-05T21:49:22.867Z,63.71
2018-12-05T21:51:56.662Z,63.26
2018-12-05T21:54:30.578Z,62.81
2018-12-05T21:57:04.577Z,62.74
2018-12-05T21:59:39.408Z,62.87
2018-12-05T22:02:13.519Z,62.40
2018-12-05T22:04:47.505Z,62.05
2018-12-05T22:07:21.743Z,62.23
2018-12-05T22:09:55.776Z,62.31
2018-12-05T22:12:29.660Z,62.26
2018-12-05T22:15:03.566Z,61.97
2018-12-05T22:17:37.371Z,61.75
2018-12-05T22:20:11.177Z,62.00
2018-12-05T22:22:44.983Z,61.90
2018-12-05T22:25:18.888Z,62.61
2018-12-05T22:27:52.693Z,61.91
2018-12-05T22:30:26.497Z,62.51
2018-12-05T22:33:00.304Z,62.58
2018-12-05T22:35:34.220Z,63.01
2018-12-05T22:38:08.117Z,62.32
2018-12-05T22:40:42.024Z,62.12
2018-12-05T22:43:15.835Z,61.65
2018-12-05T22:45:49.736Z,62.17
2018-12-05T22:48:23.643Z,62.39
2018-12-05T22:50:57.652Z,63.56
2018-12-05T22:53:31.542Z,63.13
2018-12-05T22:56:05.631Z,62.92
2018-12-05T22:58:39.785Z,63.64
2018-12-05T23:01:13.795Z,63.66
2018-12-05T23:03:48.008Z,63.38
2018-12-05T23:06:21.916Z,63.91
2018-12-05T23:08:55.823Z,63.52
2018-12-05T23:11:29.730Z,63.58
2018-12-05T23:14:03.651Z,63.43
2018-12-05T23:16:37.803Z,64.26
2018-12-05T23:19:11.894Z,64.04
2018-12-05T23:21:45.972Z,63.68
2018-12-05T23:24:19.779Z,64.98
2018-12-05T23:26:54.896Z,65.21
2018-12-05T23:29:29.132Z,64.81
2018-12-05T23:32:03.098Z,65.27
2018-12-05T23:34:37.353Z,65.48
2018-12-05T23:37:11.157Z,64.80
2018-12-05T23:39:45.270Z,64.57
2018-12-05T23:42:19.178Z,65.15
2018-12-05T23:44:53.089Z,65.59
2018-12-05T23:47:26.999Z,65.87
2018-12-05T23:50:01.001Z,65.11
2018-12-05T23:52:34.909Z,65.14
2018-12-05T23:55:08.712Z,64.84
2018-12-05T23:57:42.620Z,64.51
